sensor_id;sensor_type;location;lat;lon;timestamp;pressure;altitude;pressure_sealevel;temperature;humidity
20228;BME280;12195;55.790;37.572;2022-10-16T00:01:54;100987.92;;;6.83;62.07
20228;BME280;12195;55.790;37.572;2022-10-16T00:04:26;100996.63;;;6.83;62.06
20228;BME280;12195;55.790;37.572;2022-10-16T00:06:58;100990.52;;;6.83;61.95
20228;BME280;12195;55.790;37.572;2022-10-16T00:09:31;100992.27;;;6.82;62.06
20228;BME280;12195;55.790;37.572;2022-10-16T00:12:03;100990.60;;;6.78;62.27
20228;BME280;12195;55.790;37.572;2022-10-16T00:14:36;100993.34;;;6.72;62.37
20228;BME280;12195;55.790;37.572;2022-10-16T00:17:10;100997.69;;;6.72;62.44
20228;BME280;12195;55.790;37.572;2022-10-16T00:19:43;100997.70;;;6.70;62.55
20228;BME280;12195;55.790;37.572;2022-10-16T00:22:33;101003.83;;;6.69;62.60
20228;BME280;12195;55.790;37.572;2022-10-16T00:25:05;101003.84;;;6.68;62.53
20228;BME280;12195;55.790;37.572;2022-10-16T00:27:37;101006.54;;;6.65;62.71
20228;BME280;12195;55.790;37.572;2022-10-16T00:30:10;101014.41;;;6.62;62.90
20228;BME280;12195;55.790;37.572;2022-10-16T00:32:42;101006.73;;;6.54;63.29
20228;BME280;12195;55.790;37.572;2022-10-16T00:35:14;101011.99;;;6.51;63.33
20228;BME280;12195;55.790;37.572;2022-10-16T00:37:46;101006.84;;;6.47;63.56
20228;BME280;12195;55.790;37.572;2022-10-16T00:40:18;101012.08;;;6.45;63.73
20228;BME280;12195;55.790;37.572;2022-10-16T00:42:50;101011.30;;;6.40;64.03
20228;BME280;12195;55.790;37.572;2022-10-16T00:45:23;101006.13;;;6.37;64.13
20228;BME280;12195;55.790;37.572;2022-10-16T00:47:56;101015.73;;;6.37;64.17
20228;BME280;12195;55.790;37.572;2022-10-16T00:50:30;101014.05;;;6.33;64.38
20228;BME280;12195;55.790;37.572;2022-10-16T00:53:03;101012.28;;;6.33;64.27
20228;BME280;12195;55.790;37.572;2022-10-16T00:55:36;101014.89;;;6.33;64.05
20228;BME280;12195;55.790;37.572;2022-10-16T00:58:10;101015.79;;;6.32;64.01
20228;BME280;12195;55.790;37.572;2022-10-16T01:00:42;101019.25;;;6.34;64.03
20228;BME280;12195;55.790;37.572;2022-10-16T01:03:32;101018.40;;;6.32;64.14
20228;BME280;12195;55.790;37.572;2022-10-16T01:08:52;101021.09;;;6.28;64.05
20228;BME280;12195;55.790;37.572;2022-10-16T01:11:33;101026.36;;;6.25;64.30
20228;BME280;12195;55.790;37.572;2022-10-16T01:13:58;101019.33;;;6.28;64.17
20228;BME280;12195;55.790;37.572;2022-10-16T01:17:18;101025.44;;;6.27;64.20
20228;BME280;12195;55.790;37.572;2022-10-16T01:19:36;101034.18;;;6.25;64.32
20228;BME280;12195;55.790;37.572;2022-10-16T01:22:04;101029.80;;;6.25;64.05
20228;BME280;12195;55.790;37.572;2022-10-16T01:24:48;101031.61;;;6.22;64.40
20228;BME280;12195;55.790;37.572;2022-10-16T01:27:18;101031.70;;;6.17;64.65
20228;BME280;12195;55.790;37.572;2022-10-16T01:30:39;101036.11;;;6.12;65.06
20228;BME280;12195;55.790;37.572;2022-10-16T01:32:51;101030.96;;;6.09;64.97
20228;BME280;12195;55.790;37.572;2022-10-16T01:35:26;101037.95;;;6.06;65.17
20228;BME280;12195;55.790;37.572;2022-10-16T01:38:02;101037.96;;;6.04;65.25
20228;BME280;12195;55.790;37.572;2022-10-16T01:40:36;101044.03;;;6.06;65.23
20228;BME280;12195;55.790;37.572;2022-10-16T01:43:21;101038.81;;;6.06;65.23
20228;BME280;12195;55.790;37.572;2022-10-16T01:45:47;101041.39;;;6.09;64.95
20228;BME280;12195;55.790;37.572;2022-10-16T01:48:19;101038.78;;;6.09;64.85
20228;BME280;12195;55.790;37.572;2022-10-16T01:51:10;101042.21;;;6.11;64.60
20228;BME280;12195;55.790;37.572;2022-10-16T01:53:36;101044.84;;;6.10;64.76
20228;BME280;12195;55.790;37.572;2022-10-16T01:56:10;101048.38;;;6.06;65.04
20228;BME280;12195;55.790;37.572;2022-10-16T01:58:53;101040.57;;;6.04;64.79
20228;BME280;12195;55.790;37.572;2022-10-16T02:01:26;101049.32;;;6.00;65.03
20228;BME280;12195;55.790;37.572;2022-10-16T02:04:02;101046.72;;;6.00;65.16
20228;BME280;12195;55.790;37.572;2022-10-16T02:06:33;101046.72;;;6.00;65.03
20228;BME280;12195;55.790;37.572;2022-10-16T02:09:06;101050.22;;;5.99;65.03
20228;BME280;12195;55.790;37.572;2022-10-16T02:11:38;101042.39;;;5.99;65.06
20228;BME280;12195;55.790;37.572;2022-10-16T02:14:11;101044.11;;;6.00;64.85
20228;BME280;12195;55.790;37.572;2022-10-16T02:16:45;101051.07;;;6.01;64.92
20228;BME280;12195;55.790;37.572;2022-10-16T02:19:19;101051.07;;;6.01;64.83
20228;BME280;12195;55.790;37.572;2022-10-16T02:24:28;101041.28;;;6.15;64.18
20228;BME280;12195;55.790;37.572;2022-10-16T02:27:11;101042.38;;;6.01;64.71
20228;BME280;12195;55.790;37.572;2022-10-16T02:29:46;101051.11;;;5.98;64.89
20228;BME280;12195;55.790;37.572;2022-10-16T02:32:23;101041.61;;;5.94;65.01
20228;BME280;12195;55.790;37.572;2022-10-16T02:34:56;101044.27;;;5.90;65.20
20228;BME280;12195;55.790;37.572;2022-10-16T02:37:29;101060.81;;;5.87;65.37
20228;BME280;12195;55.790;37.572;2022-10-16T02:40:02;101054.77;;;5.85;65.31
20228;BME280;12195;55.790;37.572;2022-10-16T02:42:37;101059.08;;;5.88;65.19
20228;BME280;12195;55.790;37.572;2022-10-16T02:45:11;101056.49;;;5.86;65.24
20228;BME280;12195;55.790;37.572;2022-10-16T02:47:43;101059.98;;;5.85;65.21
20228;BME280;12195;55.790;37.572;2022-10-16T02:50:15;101054.76;;;5.87;65.06
20228;BME280;12195;55.790;37.572;2022-10-16T02:52:47;101061.67;;;5.89;64.97
20228;BME280;12195;55.790;37.572;2022-10-16T02:55:19;101064.26;;;5.91;64.99
20228;BME280;12195;55.790;37.572;2022-10-16T02:57:51;101064.20;;;5.92;64.83
20228;BME280;12195;55.790;37.572;2022-10-16T03:00:24;101060.74;;;5.93;64.80
20228;BME280;12195;55.790;37.572;2022-10-16T03:02:56;101068.56;;;5.93;64.67
20228;BME280;12195;55.790;37.572;2022-10-16T03:05:28;101065.09;;;5.91;64.76
20228;BME280;12195;55.790;37.572;2022-10-16T03:08:00;101067.70;;;5.91;64.77
20228;BME280;12195;55.790;37.572;2022-10-16T03:10:32;101073.81;;;5.90;64.78
20228;BME280;12195;55.790;37.572;2022-10-16T03:13:04;101065.98;;;5.90;64.87
20228;BME280;12195;55.790;37.572;2022-10-16T03:15:36;101074.70;;;5.89;64.84
20228;BME280;12195;55.790;37.572;2022-10-16T03:18:08;101073.81;;;5.90;64.89
20228;BME280;12195;55.790;37.572;2022-10-16T03:20:40;101077.34;;;5.86;65.06
20228;BME280;12195;55.790;37.572;2022-10-16T03:23:13;101079.14;;;5.83;65.10
20228;BME280;12195;55.790;37.572;2022-10-16T03:25:45;101076.55;;;5.81;65.08
20228;BME280;12195;55.790;37.572;2022-10-16T03:28:18;101074.78;;;5.82;65.15
20228;BME280;12195;55.790;37.572;2022-10-16T03:30:50;101075.67;;;5.81;65.11
20228;BME280;12195;55.790;37.572;2022-10-16T03:33:22;101078.28;;;5.81;65.10
20228;BME280;12195;55.790;37.572;2022-10-16T03:35:54;101086.09;;;5.81;65.10
20228;BME280;12195;55.790;37.572;2022-10-16T03:38:27;101084.36;;;5.78;65.04
20228;BME280;12195;55.790;37.572;2022-10-16T03:40:59;101092.20;;;5.76;65.20
20228;BME280;12195;55.790;37.572;2022-10-16T03:43:31;101094.83;;;5.73;65.23
20228;BME280;12195;55.790;37.572;2022-10-16T03:46:03;101087.02;;;5.73;65.22
20228;BME280;12195;55.790;37.572;2022-10-16T03:48:35;101091.42;;;5.70;65.28
20228;BME280;12195;55.790;37.572;2022-10-16T03:51:07;101087.11;;;5.67;65.28
20228;BME280;12195;55.790;37.572;2022-10-16T03:53:39;101090.59;;;5.68;65.20
20228;BME280;12195;55.790;37.572;2022-10-16T03:56:11;101087.14;;;5.64;65.31
20228;BME280;12195;55.790;37.572;2022-10-16T03:58:44;101092.34;;;5.66;65.25
20228;BME280;12195;55.790;37.572;2022-10-16T04:01:16;101092.36;;;5.64;65.25
20228;BME280;12195;55.790;37.572;2022-10-16T04:03:48;101090.64;;;5.63;65.40
20228;BME280;12195;55.790;37.572;2022-10-16T04:06:20;101088.91;;;5.64;65.35
20228;BME280;12195;55.790;37.572;2022-10-16T04:08:52;101091.54;;;5.61;65.47
20228;BME280;12195;55.790;37.572;2022-10-16T04:11:24;101088.95;;;5.59;65.51
20228;BME280;12195;55.790;37.572;2022-10-16T04:13:56;101096.77;;;5.59;65.53
20228;BME280;12195;55.790;37.572;2022-10-16T04:16:28;101089.78;;;5.61;65.49
20228;BME280;12195;55.790;37.572;2022-10-16T04:19:00;101086.33;;;5.61;65.57
20228;BME280;12195;55.790;37.572;2022-10-16T04:21:32;101091.52;;;5.64;65.55
20228;BME280;12195;55.790;37.572;2022-10-16T04:24:04;101090.59;;;5.68;65.41
20228;BME280;12195;55.790;37.572;2022-10-16T04:26:36;101085.28;;;5.74;65.14
20228;BME280;12195;55.790;37.572;2022-10-16T04:29:08;101087.84;;;5.78;65.16
20228;BME280;12195;55.790;37.572;2022-10-16T04:31:40;101098.22;;;5.83;65.08
20228;BME280;12195;55.790;37.572;2022-10-16T04:34:12;101104.28;;;5.87;65.07
20228;BME280;12195;55.790;37.572;2022-10-16T04:36:44;101100.77;;;5.89;65.27
20228;BME280;12195;55.790;37.572;2022-10-16T04:39:17;101100.50;;;6.07;65.59
20228;BME280;12195;55.790;37.572;2022-10-16T04:41:50;101103.98;;;6.62;63.61
20228;BME280;12195;55.790;37.572;2022-10-16T04:44:22;101094.13;;;6.81;62.33
20228;BME280;12195;55.790;37.572;2022-10-16T04:46:53;101101.84;;;6.87;62.22
20228;BME280;12195;55.790;37.572;2022-10-16T04:49:25;101099.97;;;6.93;61.99
20228;BME280;12195;55.790;37.572;2022-10-16T04:51:57;101098.13;;;7.45;61.38
20228;BME280;12195;55.790;37.572;2022-10-16T04:54:29;101105.05;;;7.89;58.88
20228;BME280;12195;55.790;37.572;2022-10-16T04:57:02;101100.50;;;8.36;57.92
20228;BME280;12195;55.790;37.572;2022-10-16T04:59:35;101108.16;;;8.80;56.15
20228;BME280;12195;55.790;37.572;2022-10-16T05:02:07;101108.05;;;8.83;55.61
20228;BME280;12195;55.790;37.572;2022-10-16T05:04:39;101106.41;;;8.79;55.89
20228;BME280;12195;55.790;37.572;2022-10-16T05:07:11;101109.66;;;8.89;55.86
20228;BME280;12195;55.790;37.572;2022-10-16T05:09:43;101097.86;;;9.38;54.38
20228;BME280;12195;55.790;37.572;2022-10-16T05:12:15;101106.34;;;9.48;53.77
20228;BME280;12195;55.790;37.572;2022-10-16T05:14:47;101103.41;;;9.58;54.05
20228;BME280;12195;55.790;37.572;2022-10-16T05:17:19;101109.49;;;10.18;52.09
20228;BME280;12195;55.790;37.572;2022-10-16T05:19:52;101099.85;;;10.46;51.20
20228;BME280;12195;55.790;37.572;2022-10-16T05:22:24;101103.17;;;10.79;49.97
20228;BME280;12195;55.790;37.572;2022-10-16T05:24:56;101099.12;;;10.95;49.71
20228;BME280;12195;55.790;37.572;2022-10-16T05:27:30;101110.23;;;11.28;48.69
20228;BME280;12195;55.790;37.572;2022-10-16T05:30:02;101107.45;;;11.32;48.52
20228;BME280;12195;55.790;37.572;2022-10-16T05:32:36;101112.15;;;11.95;47.18
20228;BME280;12195;55.790;37.572;2022-10-16T05:35:09;101111.24;;;12.40;45.97
20228;BME280;12195;55.790;37.572;2022-10-16T05:37:42;101108.17;;;12.51;45.40
20228;BME280;12195;55.790;37.572;2022-10-16T05:40:15;101115.50;;;12.21;45.56
20228;BME280;12195;55.790;37.572;2022-10-16T05:42:47;101115.48;;;11.77;46.78
20228;BME280;12195;55.790;37.572;2022-10-16T05:45:19;101118.51;;;11.66;47.64
20228;BME280;12195;55.790;37.572;2022-10-16T05:47:51;101114.97;;;12.35;46.06
20228;BME280;12195;55.790;37.572;2022-10-16T05:50:23;101109.23;;;13.10;44.21
20228;BME280;12195;55.790;37.572;2022-10-16T05:52:55;101107.23;;;13.55;42.73
20228;BME280;12195;55.790;37.572;2022-10-16T05:55:28;101104.78;;;13.70;42.60
20228;BME280;12195;55.790;37.572;2022-10-16T05:58:00;101110.02;;;13.90;42.15
20228;BME280;12195;55.790;37.572;2022-10-16T06:00:32;101110.59;;;13.97;41.92
20228;BME280;12195;55.790;37.572;2022-10-16T06:03:04;101112.77;;;14.26;41.46
20228;BME280;12195;55.790;37.572;2022-10-16T06:05:38;101112.23;;;14.18;41.30
20228;BME280;12195;55.790;37.572;2022-10-16T06:08:10;101114.45;;;14.81;40.26
20228;BME280;12195;55.790;37.572;2022-10-16T06:10:42;101108.75;;;14.71;40.22
20228;BME280;12195;55.790;37.572;2022-10-16T06:13:14;101115.24;;;14.83;40.06
20228;BME280;12195;55.790;37.572;2022-10-16T06:15:46;101108.39;;;14.79;39.89
20228;BME280;12195;55.790;37.572;2022-10-16T06:18:18;101118.17;;;14.41;40.47
20228;BME280;12195;55.790;37.572;2022-10-16T06:20:50;101126.08;;;14.04;41.15
20228;BME280;12195;55.790;37.572;2022-10-16T06:23:23;101118.69;;;13.74;41.72
20228;BME280;12195;55.790;37.572;2022-10-16T06:26:03;101119.02;;;13.28;42.59
20228;BME280;12195;55.790;37.572;2022-10-16T06:28:30;101130.36;;;12.67;43.84
20228;BME280;12195;55.790;37.572;2022-10-16T06:31:04;101129.22;;;12.08;45.51
20228;BME280;12195;55.790;37.572;2022-10-16T06:33:38;101125.72;;;11.61;46.87
20228;BME280;12195;55.790;37.572;2022-10-16T06:36:13;101130.48;;;11.26;47.66
20228;BME280;12195;55.790;37.572;2022-10-16T06:38:45;101126.14;;;10.98;48.53
20228;BME280;12195;55.790;37.572;2022-10-16T06:41:19;101132.75;;;11.10;48.25
20228;BME280;12195;55.790;37.572;2022-10-16T06:43:51;101134.31;;;10.63;49.29
20228;BME280;12195;55.790;37.572;2022-10-16T06:46:25;101132.23;;;10.47;49.58
20228;BME280;12195;55.790;37.572;2022-10-16T06:48:57;101128.08;;;10.40;50.07
20228;BME280;12195;55.790;37.572;2022-10-16T06:51:29;101134.41;;;10.33;50.44
20228;BME280;12195;55.790;37.572;2022-10-16T06:54:02;101132.91;;;10.26;50.88
20228;BME280;12195;55.790;37.572;2022-10-16T06:56:35;101139.20;;;10.20;51.31
20228;BME280;12195;55.790;37.572;2022-10-16T06:59:07;101144.57;;;10.16;51.21
20228;BME280;12195;55.790;37.572;2022-10-16T07:01:39;101145.44;;;10.16;51.35
20228;BME280;12195;55.790;37.572;2022-10-16T07:04:11;101140.23;;;10.15;51.30
20228;BME280;12195;55.790;37.572;2022-10-16T07:06:44;101143.77;;;10.14;51.34
20228;BME280;12195;55.790;37.572;2022-10-16T07:09:16;101147.31;;;10.13;51.51
20228;BME280;12195;55.790;37.572;2022-10-16T07:11:48;101143.69;;;10.17;51.33
20228;BME280;12195;55.790;37.572;2022-10-16T07:14:21;101144.48;;;10.19;51.51
20228;BME280;12195;55.790;37.572;2022-10-16T07:16:53;101150.56;;;10.21;51.00
20228;BME280;12195;55.790;37.572;2022-10-16T07:19:25;101151.41;;;10.21;51.13
20228;BME280;12195;55.790;37.572;2022-10-16T07:21:59;101146.95;;;10.25;50.79
20228;BME280;12195;55.790;37.572;2022-10-16T07:24:31;101149.41;;;10.29;50.89
20228;BME280;12195;55.790;37.572;2022-10-16T07:27:03;101141.53;;;10.29;51.15
20228;BME280;12195;55.790;37.572;2022-10-16T07:29:35;101151.13;;;10.30;50.76
20228;BME280;12195;55.790;37.572;2022-10-16T07:32:07;101153.75;;;10.30;51.12
20228;BME280;12195;55.790;37.572;2022-10-16T07:34:40;101151.08;;;10.32;51.34
20228;BME280;12195;55.790;37.572;2022-10-16T07:37:13;101150.16;;;10.33;51.11
20228;BME280;12195;55.790;37.572;2022-10-16T07:39:45;101147.50;;;10.34;50.84
20228;BME280;12195;55.790;37.572;2022-10-16T07:42:17;101152.66;;;10.37;50.96
20228;BME280;12195;55.790;37.572;2022-10-16T07:44:49;101151.70;;;10.40;50.93
20228;BME280;12195;55.790;37.572;2022-10-16T07:47:21;101142.78;;;10.45;50.67
20228;BME280;12195;55.790;37.572;2022-10-16T07:49:54;101150.45;;;10.51;51.00
20228;BME280;12195;55.790;37.572;2022-10-16T07:52:26;101146.78;;;10.57;50.88
20228;BME280;12195;55.790;37.572;2022-10-16T07:54:58;101147.45;;;10.63;51.01
20228;BME280;12195;55.790;37.572;2022-10-16T07:57:30;101144.69;;;10.68;50.74
20228;BME280;12195;55.790;37.572;2022-10-16T08:00:02;101152.43;;;10.72;51.12
20228;BME280;12195;55.790;37.572;2022-10-16T08:02:36;101154.14;;;10.73;50.61
20228;BME280;12195;55.790;37.572;2022-10-16T08:05:08;101150.55;;;10.76;50.48
20228;BME280;12195;55.790;37.572;2022-10-16T08:07:41;101154.80;;;10.80;50.57
20228;BME280;12195;55.790;37.572;2022-10-16T08:10:22;101158.13;;;10.85;50.14
20228;BME280;12195;55.790;37.572;2022-10-16T08:12:48;101151.82;;;10.90;50.27
20228;BME280;12195;55.790;37.572;2022-10-16T08:15:20;101148.98;;;10.96;50.03
20228;BME280;12195;55.790;37.572;2022-10-16T08:17:58;101149.70;;;11.02;50.15
20228;BME280;12195;55.790;37.572;2022-10-16T08:20:31;101144.27;;;11.06;50.23
20228;BME280;12195;55.790;37.572;2022-10-16T08:23:04;101146.77;;;11.11;50.54
20228;BME280;12195;55.790;37.572;2022-10-16T08:25:36;101144.83;;;11.16;50.69
20228;BME280;12195;55.790;37.572;2022-10-16T08:28:10;101136.75;;;11.22;50.65
20228;BME280;12195;55.790;37.572;2022-10-16T08:30:42;101143.54;;;11.27;49.99
20228;BME280;12195;55.790;37.572;2022-10-16T08:33:14;101146.81;;;11.34;49.78
20228;BME280;12195;55.790;37.572;2022-10-16T08:35:53;101150.95;;;11.41;50.16
20228;BME280;12195;55.790;37.572;2022-10-16T08:38:25;101149.11;;;11.44;49.58
20228;BME280;12195;55.790;37.572;2022-10-16T08:49:56;101142.44;;;11.59;49.28
20228;BME280;12195;55.790;37.572;2022-10-16T08:52:33;101136.23;;;11.61;49.21
20228;BME280;12195;55.790;37.572;2022-10-16T08:55:08;101137.03;;;11.63;48.97
20228;BME280;12195;55.790;37.572;2022-10-16T08:57:40;101144.77;;;11.68;49.13
20228;BME280;12195;55.790;37.572;2022-10-16T09:00:15;101136.69;;;11.72;48.70
20228;BME280;12195;55.790;37.572;2022-10-16T09:06:17;101131.90;;;11.83;48.79
20228;BME280;12195;55.790;37.572;2022-10-16T09:11:48;101143.62;;;11.98;47.52
20228;BME280;12195;55.790;37.572;2022-10-16T09:20:20;101134.49;;;12.08;47.44
20228;BME280;12195;55.790;37.572;2022-10-16T09:25:39;101127.16;;;12.16;47.18
20228;BME280;12195;55.790;37.572;2022-10-16T09:28:12;101136.62;;;12.20;47.14
20228;BME280;12195;55.790;37.572;2022-10-16T09:30:46;101131.19;;;12.24;47.16
20228;BME280;12195;55.790;37.572;2022-10-16T09:33:20;101126.66;;;12.28;46.67
20228;BME280;12195;55.790;37.572;2022-10-16T09:35:54;101130.30;;;12.47;47.12
20228;BME280;12195;55.790;37.572;2022-10-16T09:38:32;101128.70;;;12.43;46.97
20228;BME280;12195;55.790;37.572;2022-10-16T09:41:21;101121.61;;;12.45;46.40
20228;BME280;12195;55.790;37.572;2022-10-16T09:43:57;101125.02;;;12.47;46.43
20228;BME280;12195;55.790;37.572;2022-10-16T09:46:32;101119.70;;;12.48;46.32
20228;BME280;12195;55.790;37.572;2022-10-16T09:49:26;101119.53;;;12.53;46.56
20228;BME280;12195;55.790;37.572;2022-10-16T09:52:16;101121.19;;;12.55;46.34
20228;BME280;12195;55.790;37.572;2022-10-16T09:54:25;101112.14;;;12.61;45.37
20228;BME280;12195;55.790;37.572;2022-10-16T09:57:11;101116.46;;;12.63;45.44
20228;BME280;12195;55.790;37.572;2022-10-16T09:59:54;101106.64;;;12.67;45.71
20228;BME280;12195;55.790;37.572;2022-10-16T10:02:37;101105.72;;;12.68;45.48
20228;BME280;12195;55.790;37.572;2022-10-16T10:05:24;101105.42;;;12.75;45.21
20228;BME280;12195;55.790;37.572;2022-10-16T10:07:58;101105.94;;;12.83;44.31
20228;BME280;12195;55.790;37.572;2022-10-16T10:10:33;101095.15;;;12.89;43.48
20228;BME280;12195;55.790;37.572;2022-10-16T10:13:20;101098.56;;;12.91;43.19
20228;BME280;12195;55.790;37.572;2022-10-16T10:15:42;101108.98;;;12.94;43.28
20228;BME280;12195;55.790;37.572;2022-10-16T10:18:18;101115.07;;;12.96;43.19
20228;BME280;12195;55.790;37.572;2022-10-16T10:21:00;101093.95;;;12.98;42.67
20228;BME280;12195;55.790;37.572;2022-10-16T10:23:34;101093.08;;;12.97;42.88
20228;BME280;12195;55.790;37.572;2022-10-16T10:26:18;101091.16;;;13.01;42.93
20228;BME280;12195;55.790;37.572;2022-10-16T10:29:03;101084.24;;;12.98;42.93
20228;BME280;12195;55.790;37.572;2022-10-16T10:34:35;101093.34;;;13.11;43.56
20228;BME280;12195;55.790;37.572;2022-10-16T10:37:10;101094.86;;;13.17;43.24
20228;BME280;12195;55.790;37.572;2022-10-16T10:39:49;101092.10;;;13.20;42.75
20228;BME280;12195;55.790;37.572;2022-10-16T10:42:22;101098.25;;;13.20;42.86
20228;BME280;12195;55.790;37.572;2022-10-16T10:50:23;101090.45;;;13.17;42.96
20228;BME280;12195;55.790;37.572;2022-10-16T11:02:29;101068.61;;;13.14;43.54
20228;BME280;12195;55.790;37.572;2022-10-16T11:04:23;101077.33;;;13.16;43.22
20228;BME280;12195;55.790;37.572;2022-10-16T11:07:05;101076.40;;;13.17;43.20
20228;BME280;12195;55.790;37.572;2022-10-16T11:09:39;101079.09;;;13.15;43.47
20228;BME280;12195;55.790;37.572;2022-10-16T11:12:26;101074.69;;;13.16;43.53
20228;BME280;12195;55.790;37.572;2022-10-16T11:15:18;101065.20;;;13.12;43.35
20228;BME280;12195;55.790;37.572;2022-10-16T11:20:42;101071.59;;;13.06;43.99
20228;BME280;12195;55.790;37.572;2022-10-16T11:23:35;101077.85;;;13.04;44.02
20228;BME280;12195;55.790;37.572;2022-10-16T11:28:53;101067.13;;;13.08;44.05
20228;BME280;12195;55.790;37.572;2022-10-16T11:31:41;101067.19;;;13.07;44.15
20228;BME280;12195;55.790;37.572;2022-10-16T11:39:32;101057.28;;;13.12;43.97
20228;BME280;12195;55.790;37.572;2022-10-16T11:42:30;101058.98;;;13.13;44.46
20228;BME280;12195;55.790;37.572;2022-10-16T11:47:45;101060.70;;;13.14;44.21
20228;BME280;12195;55.790;37.572;2022-10-16T11:53:35;101056.88;;;13.21;44.32
20228;BME280;12195;55.790;37.572;2022-10-16T11:55:56;101056.75;;;13.24;43.62
20228;BME280;12195;55.790;37.572;2022-10-16T11:58:34;101058.45;;;13.25;43.71
20228;BME280;12195;55.790;37.572;2022-10-16T12:01:15;101055.82;;;13.25;43.55
20228;BME280;12195;55.790;37.572;2022-10-16T12:04:30;101051.48;;;13.24;44.05
20228;BME280;12195;55.790;37.572;2022-10-16T12:07:11;101051.41;;;13.25;44.02
20228;BME280;12195;55.790;37.572;2022-10-16T12:09:43;101060.97;;;13.28;43.70
20228;BME280;12195;55.790;37.572;2022-10-16T12:12:26;101063.39;;;13.32;43.43
20228;BME280;12195;55.790;37.572;2022-10-16T12:15:17;101063.91;;;13.40;43.55
20228;BME280;12195;55.790;37.572;2022-10-16T12:17:37;101064.17;;;13.54;43.63
20228;BME280;12195;55.790;37.572;2022-10-16T12:22:56;101051.23;;;13.48;43.17
20228;BME280;12195;55.790;37.572;2022-10-16T12:25:39;101053.67;;;13.53;43.42
20228;BME280;12195;55.790;37.572;2022-10-16T12:31:05;101039.92;;;13.65;43.36
20228;BME280;12195;55.790;37.572;2022-10-16T12:33:57;101046.84;;;13.86;42.94
20228;BME280;12195;55.790;37.572;2022-10-16T12:36:32;101031.48;;;14.31;41.89
20228;BME280;12195;55.790;37.572;2022-10-16T12:39:05;101027.14;;;15.64;39.85
20228;BME280;12195;55.790;37.572;2022-10-16T12:41:37;101025.55;;;17.42;36.38
20228;BME280;12195;55.790;37.572;2022-10-16T12:44:26;101022.56;;;19.07;32.99
20228;BME280;12195;55.790;37.572;2022-10-16T12:46:59;101021.13;;;20.62;30.92
20228;BME280;12195;55.790;37.572;2022-10-16T12:49:48;101012.25;;;21.63;28.46
20228;BME280;12195;55.790;37.572;2022-10-16T12:52:35;101013.84;;;22.52;27.29
20228;BME280;12195;55.790;37.572;2022-10-16T12:55:15;101021.46;;;23.50;26.23
20228;BME280;12195;55.790;37.572;2022-10-16T12:58:12;101013.56;;;24.37;24.73
20228;BME280;12195;55.790;37.572;2022-10-16T13:00:50;101014.73;;;25.01;24.11
20228;BME280;12195;55.790;37.572;2022-10-16T13:09:29;101009.55;;;25.46;22.97
20228;BME280;12195;55.790;37.572;2022-10-16T13:15:22;101006.64;;;25.20;22.93
20228;BME280;12195;55.790;37.572;2022-10-16T13:18:00;101009.89;;;25.14;22.88
20228;BME280;12195;55.790;37.572;2022-10-16T13:21:28;101010.90;;;25.13;23.00
20228;BME280;12195;55.790;37.572;2022-10-16T13:28:35;101005.18;;;24.02;23.95
20228;BME280;12195;55.790;37.572;2022-10-16T13:31:18;101017.77;;;22.26;26.11
20228;BME280;12195;55.790;37.572;2022-10-16T13:33:49;101009.52;;;20.74;28.34
20228;BME280;12195;55.790;37.572;2022-10-16T13:36:50;101018.33;;;19.17;30.85
20228;BME280;12195;55.790;37.572;2022-10-16T13:39:13;101013.91;;;17.99;32.62
20228;BME280;12195;55.790;37.572;2022-10-16T13:41:45;101020.34;;;17.11;34.29
20228;BME280;12195;55.790;37.572;2022-10-16T13:44:19;101019.03;;;16.30;36.07
20228;BME280;12195;55.790;37.572;2022-10-16T13:46:59;101030.30;;;15.71;37.27
20228;BME280;12195;55.790;37.572;2022-10-16T13:49:31;101017.80;;;15.25;38.25
20228;BME280;12195;55.790;37.572;2022-10-16T13:52:04;101012.09;;;14.83;39.04
20228;BME280;12195;55.790;37.572;2022-10-16T13:54:36;101016.27;;;14.53;39.93
20228;BME280;12195;55.790;37.572;2022-10-16T13:57:08;101005.83;;;14.14;40.51
20228;BME280;12195;55.790;37.572;2022-10-16T13:59:41;101025.91;;;14.00;41.12
20228;BME280;12195;55.790;37.572;2022-10-16T14:02:29;101020.14;;;13.73;41.49
20228;BME280;12195;55.790;37.572;2022-10-16T14:05:02;101031.05;;;13.47;42.19
20228;BME280;12195;55.790;37.572;2022-10-16T14:07:34;101017.89;;;13.27;42.52
20228;BME280;12195;55.790;37.572;2022-10-16T14:10:22;101023.42;;;13.41;41.58
20228;BME280;12195;55.790;37.572;2022-10-16T14:12:41;101033.09;;;13.02;43.25
20228;BME280;12195;55.790;37.572;2022-10-16T14:15:17;101028.43;;;12.87;43.84
20228;BME280;12195;55.790;37.572;2022-10-16T14:17:51;101019.81;;;12.84;44.12
20228;BME280;12195;55.790;37.572;2022-10-16T14:20:29;101020.55;;;12.67;44.58
20228;BME280;12195;55.790;37.572;2022-10-16T14:23:19;101020.19;;;12.55;44.75
20228;BME280;12195;55.790;37.572;2022-10-16T14:25:52;101021.41;;;12.46;45.04
20228;BME280;12195;55.790;37.572;2022-10-16T14:28:24;101027.33;;;12.31;45.34
20228;BME280;12195;55.790;37.572;2022-10-16T14:30:59;101032.05;;;12.23;45.30
20228;BME280;12195;55.790;37.572;2022-10-16T14:33:33;101027.76;;;12.21;45.76
20228;BME280;12195;55.790;37.572;2022-10-16T14:36:13;101030.51;;;12.18;45.85
20228;BME280;12195;55.790;37.572;2022-10-16T14:41:25;101029.51;;;11.99;46.30
20228;BME280;12195;55.790;37.572;2022-10-16T14:44:02;101034.30;;;11.89;46.84
20228;BME280;12195;55.790;37.572;2022-10-16T14:46:39;101026.68;;;11.82;46.80
20228;BME280;12195;55.790;37.572;2022-10-16T14:49:16;101033.09;;;11.75;47.11